Time;durP1;ratioP1;P1;durP2;ratioP2;P2;SDS_P1;SDS_P2;PMS_P1;PMS_P2;Temp;Humidity;BMP_temperature;BMP_pressure;BME280_temperature;BME280_humidity;BME280_pressure;Samples;Min_cycle;Max_cycle;Signal;HPM_P1;HPM_P2
2022/01/12 00:01:15;;;;;;;80.57;34.85;;;;;;;-3.01;80.22;99809.05;1731297;82;21068;-56
2022/01/12 00:03:43;;;;;;;114.70;43.38;;;;;;;-2.93;79.97;99807.33;1721313;82;21114;-56
2022/01/12 00:06:10;;;;;;;81.00;35.13;;;;;;;-2.81;79.93;99807.12;1687256;82;21020;-56
2022/01/12 00:08:37;;;;;;;80.50;36.42;;;;;;;-2.77;78.96;99805.33;1712530;83;21051;-56
2022/01/12 00:11:04;;;;;;;83.22;34.27;;;;;;;-2.84;78.54;99809.57;1719604;82;21351;-56
2022/01/12 00:13:32;;;;;;;82.08;37.45;;;;;;;-3.06;78.58;99800.73;1736634;82;21055;-56
2022/01/12 00:16:01;;;;;;;76.85;33.05;;;;;;;-3.09;79.97;99800.52;1733673;82;21072;-56
2022/01/12 00:18:30;;;;;;;73.37;31.40;;;;;;;-3.10;79.25;99801.50;1736529;82;37720;-56
2022/01/12 00:20:56;;;;;;;96.60;40.08;;;;;;;-3.13;79.34;99809.77;1736901;82;21012;-56
2022/01/12 00:23:23;;;;;;;91.97;38.42;;;;;;;-3.08;79.25;99811.95;1713606;82;22110;-56
2022/01/12 00:26:04;;;;;;;91.25;35.38;;;;;;;-3.08;80.76;99811.46;1716978;82;21478;-56
2022/01/12 00:34:03;;;;;;;114.20;44.63;;;;;;;-3.01;79.24;99812.54;1712352;83;20998;-56
2022/01/12 00:36:30;;;;;;;152.30;56.13;;;;;;;-3.02;79.22;99819.33;1723145;82;21323;-56
2022/01/12 00:38:58;;;;;;;96.70;38.65;;;;;;;-3.08;80.04;99814.61;1737323;82;21004;-56
2022/01/12 00:41:25;;;;;;;127.07;41.67;;;;;;;-3.18;81.17;99821.30;1730848;82;20997;-56
2022/01/12 00:43:57;;;;;;;78.05;32.48;;;;;;;-3.19;79.84;99827.09;1712687;83;21007;-56
2022/01/12 00:46:20;;;;;;;119.08;39.83;;;;;;;-3.18;79.47;99827.92;1725121;82;21008;-56
2022/01/12 00:48:47;;;;;;;75.08;32.40;;;;;;;-3.32;80.61;99823.97;1718567;82;21306;-56
2022/01/12 00:51:14;;;;;;;97.45;38.45;;;;;;;-3.27;79.54;99827.48;1709880;82;21058;-56
2022/01/12 00:53:41;;;;;;;83.37;34.48;;;;;;;-3.37;80.49;99822.23;1712458;83;22067;-56
2022/01/12 00:56:08;;;;;;;95.12;36.08;;;;;;;-3.32;79.92;99834.58;1712427;82;20979;-56
2022/01/12 00:58:35;;;;;;;78.65;33.90;;;;;;;-3.29;81.63;99829.45;1712307;83;21057;-56
2022/01/12 01:01:03;;;;;;;88.47;35.23;;;;;;;-3.27;81.41;99828.81;1721886;82;21320;-56
2022/01/12 01:03:30;;;;;;;84.87;36.93;;;;;;;-3.25;81.58;99825.52;1723380;82;21001;-56
2022/01/12 01:05:59;;;;;;;74.60;34.10;;;;;;;-3.23;81.63;99825.73;1709265;82;20983;-56
2022/01/12 01:08:25;;;;;;;59.83;24.53;;;;;;;-3.15;80.80;99821.02;1712564;82;21019;-56
2022/01/12 01:10:54;;;;;;;73.52;31.27;;;;;;;-3.10;80.26;99816.09;1720596;82;21064;-56
2022/01/12 01:13:27;;;;;;;81.90;35.70;;;;;;;-3.09;79.87;99814.27;1737126;82;21489;-56
2022/01/12 01:16:06;;;;;;;80.40;33.28;;;;;;;-3.05;80.21;99819.64;1736319;82;21448;-56
2022/01/12 01:26:45;;;;;;;73.45;31.48;;;;;;;-3.11;79.62;99811.77;1735988;82;21676;-56
2022/01/12 01:29:12;;;;;;;78.12;35.50;;;;;;;-3.08;80.00;99810.13;1737026;82;21445;-56
2022/01/12 01:31:41;;;;;;;85.42;32.42;;;;;;;-3.07;79.85;99810.50;1720652;82;21010;-56
2022/01/12 01:34:10;;;;;;;78.02;34.20;;;;;;;-2.97;79.88;99814.42;1712654;82;21009;-56
2022/01/12 01:36:46;;;;;;;71.22;30.05;;;;;;;-2.88;79.72;99810.87;1724456;82;21042;-56
2022/01/12 01:39:16;;;;;;;77.97;31.35;;;;;;;-2.93;80.06;99812.63;1737154;82;21052;-56
2022/01/12 01:41:48;;;;;;;80.72;34.33;;;;;;;-2.96;79.81;99817.41;1724931;81;20990;-56
2022/01/12 01:54:50;;;;;;;85.03;30.45;;;;;;;-3.05;80.39;99820.47;1712337;83;20986;-56
2022/01/12 01:57:17;;;;;;;78.62;29.92;;;;;;;-3.08;80.92;99827.38;1712277;82;21050;-56
2022/01/12 01:59:45;;;;;;;74.45;31.52;;;;;;;-3.08;80.44;99823.40;1712635;83;21058;-56
2022/01/12 02:02:13;;;;;;;77.62;31.35;;;;;;;-3.03;80.12;99824.30;1727574;82;21024;-56
2022/01/12 02:04:40;;;;;;;68.50;29.87;;;;;;;-2.99;80.08;99821.67;1737212;82;21405;-56
2022/01/12 02:07:07;;;;;;;68.78;28.67;;;;;;;-2.97;80.10;99817.91;1736930;82;21067;-56
2022/01/12 02:09:37;;;;;;;70.62;30.48;;;;;;;-2.99;79.71;99815.91;1736953;82;20966;-56
2022/01/12 02:12:13;;;;;;;72.42;31.17;;;;;;;-2.93;79.77;99819.75;1736738;82;21827;-56
2022/01/12 02:14:43;;;;;;;77.00;30.85;;;;;;;-2.88;79.45;99824.13;1714997;82;21509;-56
2022/01/12 02:17:20;;;;;;;78.47;30.02;;;;;;;-2.88;79.37;99824.13;1730026;82;21008;-56
2022/01/12 02:19:52;;;;;;;68.47;28.85;;;;;;;-2.91;79.23;99818.61;1736724;82;21486;-56
2022/01/12 02:36:15;;;;;;;71.20;30.55;;;;;;;-3.32;80.97;99813.86;1729692;82;21396;-56
2022/01/12 02:41:25;;;;;;;87.75;32.38;;;;;;;-3.46;81.82;99810.70;1722299;82;21111;-56
2022/01/12 02:54:51;;;;;;;61.50;26.62;;;;;;;-3.38;81.20;99804.66;1712766;83;21035;-56
2022/01/12 02:57:18;;;;;;;74.67;29.65;;;;;;;-3.35;81.90;99818.94;1712330;82;21360;-56
2022/01/12 03:00:05;;;;;;;68.67;27.02;;;;;;;-3.37;81.47;99805.50;1712662;82;20964;-56
2022/01/12 03:02:27;;;;;;;63.63;26.95;;;;;;;-3.38;81.22;99809.13;1732994;82;21017;-57
2022/01/12 03:05:19;;;;;;;69.70;28.85;;;;;;;-3.34;81.07;99807.34;1736630;82;21020;-58
2022/01/12 03:07:20;;;;;;;69.10;27.90;;;;;;;-3.34;81.21;99802.54;1723062;82;22457;-58
2022/01/12 03:09:47;;;;;;;62.15;24.87;;;;;;;-3.36;81.44;99810.64;1737314;82;21405;-57
2022/01/12 03:12:13;;;;;;;58.58;22.52;;;;;;;-3.30;80.96;99805.25;1737267;82;20981;-57
2022/01/12 03:14:40;;;;;;;56.55;23.67;;;;;;;-3.33;81.36;99809.51;1737295;82;21412;-56
2022/01/12 03:17:07;;;;;;;52.35;22.75;;;;;;;-3.46;82.33;99810.70;1720164;82;20995;-57
2022/01/12 03:19:34;;;;;;;72.78;29.75;;;;;;;-3.50;82.28;99816.45;1712411;83;21031;-57
2022/01/12 03:22:01;;;;;;;64.30;30.55;;;;;;;-3.52;82.21;99809.11;1729503;82;21311;-57
2022/01/12 03:24:28;;;;;;;65.08;26.70;;;;;;;-3.44;81.70;99810.05;1734620;80;20961;-56
2022/01/12 03:26:55;;;;;;;61.53;24.95;;;;;;;-3.39;81.42;99817.58;1715940;82;21019;-56
2022/01/12 03:29:22;;;;;;;66.57;27.75;;;;;;;-3.40;81.63;99817.23;1712450;83;21011;-57
2022/01/12 03:31:48;;;;;;;63.78;27.32;;;;;;;-3.55;82.86;99823.50;1726169;82;21449;-56
2022/01/12 03:34:30;;;;;;;63.08;25.10;;;;;;;-3.69;83.17;99822.64;1736947;82;21423;-57
2022/01/12 04:09:12;;;;;;;32.13;14.73;;;;;;;-3.53;79.05;99792.88;1712490;83;21597;-55
2022/01/12 04:11:39;;;;;;;20.97;10.65;;;;;;;-3.55;77.84;99795.67;1717561;82;21067;-56
2022/01/12 04:14:07;;;;;;;29.07;11.85;;;;;;;-3.62;75.93;99791.09;1707671;83;21044;-56
2022/01/12 04:16:34;;;;;;;26.95;11.48;;;;;;;-3.55;77.16;99791.70;1707069;82;21046;-56
2022/01/12 04:19:01;;;;;;;35.60;15.65;;;;;;;-3.55;75.96;99783.75;1712482;83;21201;-56
2022/01/12 04:21:29;;;;;;;38.90;17.92;;;;;;;-3.50;76.68;99793.92;1712291;82;22096;-56
2022/01/12 04:23:57;;;;;;;31.25;14.30;;;;;;;-3.44;77.34;99795.96;1710629;82;20978;-56
2022/01/12 04:26:25;;;;;;;33.63;15.55;;;;;;;-3.42;76.09;99796.19;1713443;82;20992;-56
2022/01/12 04:28:52;;;;;;;31.23;13.28;;;;;;;-3.35;76.91;99797.73;1737127;82;21016;-56
2022/01/12 04:31:19;;;;;;;26.02;11.45;;;;;;;-3.30;77.05;99809.23;1736884;82;21000;-56
2022/01/12 04:33:46;;;;;;;28.67;13.18;;;;;;;-3.27;75.45;99795.17;1736949;82;21385;-56
2022/01/12 04:36:14;;;;;;;24.35;10.78;;;;;;;-3.35;73.71;99810.16;1735562;82;21020;-56
2022/01/12 04:38:42;;;;;;;22.67;10.50;;;;;;;-3.30;74.88;99811.88;1712401;82;21050;-56
2022/01/12 04:41:09;;;;;;;29.10;12.13;;;;;;;-3.32;74.24;99813.36;1712443;82;20963;-56
2022/01/12 04:43:41;;;;;;;37.40;14.40;;;;;;;-3.43;74.79;99808.23;1712417;82;21090;-56
2022/01/12 04:46:10;;;;;;;35.05;16.02;;;;;;;-3.45;75.31;99811.53;1719371;82;21421;-56
2022/01/12 04:48:51;;;;;;;29.25;12.75;;;;;;;-3.38;76.08;99807.31;1720327;82;21005;-56
2022/01/12 04:51:06;;;;;;;30.85;14.05;;;;;;;-3.44;75.11;99810.55;1707352;82;21019;-56
2022/01/12 04:53:33;;;;;;;34.33;16.48;;;;;;;-3.53;75.68;99809.61;1712544;83;20991;-56
2022/01/12 04:56:00;;;;;;;37.08;14.30;;;;;;;-3.64;75.99;99822.22;1718123;82;21527;-56
2022/01/12 04:58:27;;;;;;;26.23;13.40;;;;;;;-3.78;76.50;99819.53;1737035;82;21408;-56
2022/01/12 05:01:02;;;;;;;24.07;10.48;;;;;;;-3.76;76.51;99824.19;1736857;82;21028;-58
2022/01/12 05:06:38;;;;;;;23.92;11.40;;;;;;;-3.86;75.21;99824.22;1713236;82;22041;-55
2022/01/12 05:13:59;;;;;;;18.60;8.63;;;;;;;-4.04;75.25;99833.39;1712212;83;20974;-56
2022/01/12 05:16:26;;;;;;;22.15;10.48;;;;;;;-3.97;74.99;99834.98;1715589;82;21088;-57
2022/01/12 05:18:55;;;;;;;25.77;9.73;;;;;;;-3.95;74.18;99836.16;1737090;82;21068;-57
2022/01/12 05:21:23;;;;;;;25.20;9.30;;;;;;;-4.00;73.87;99845.88;1736939;82;21068;-57
2022/01/12 05:23:50;;;;;;;22.42;10.48;;;;;;;-3.89;74.36;99845.70;1737186;82;22016;-57
2022/01/12 05:26:17;;;;;;;19.87;8.80;;;;;;;-3.95;73.54;99850.73;1724360;82;21493;-57
2022/01/12 05:28:44;;;;;;;26.20;10.78;;;;;;;-3.97;73.40;99847.74;1712330;83;20998;-57
2022/01/12 05:31:11;;;;;;;25.37;9.50;;;;;;;-3.88;73.76;99849.19;1720046;82;20971;-57
2022/01/12 05:33:41;;;;;;;20.70;10.20;;;;;;;-3.82;73.83;99857.90;1737125;82;21480;-57
2022/01/12 05:36:07;;;;;;;21.42;7.75;;;;;;;-3.94;73.41;99863.00;1736738;82;21433;-56
2022/01/12 05:38:34;;;;;;;19.10;8.85;;;;;;;-4.05;73.52;99864.00;1712334;83;20995;-56
2022/01/12 05:41:04;;;;;;;15.95;5.80;;;;;;;-3.92;73.86;99863.71;1721311;82;21575;-56
2022/01/12 05:43:32;;;;;;;23.92;10.35;;;;;;;-3.90;74.14;99870.53;1737093;82;21001;-57
2022/01/12 05:46:09;;;;;;;16.65;7.47;;;;;;;-4.03;73.84;99861.55;1737092;82;26444;-56
2022/01/12 05:51:16;;;;;;;20.48;8.55;;;;;;;-3.97;74.59;99871.58;1707190;82;21027;-57
2022/01/12 05:53:43;;;;;;;18.27;9.63;;;;;;;-4.02;73.66;99871.64;1712563;83;21074;-56
2022/01/12 05:56:10;;;;;;;28.50;11.95;;;;;;;-3.95;73.86;99871.44;1712872;82;21042;-57
2022/01/12 05:58:37;;;;;;;20.23;8.88;;;;;;;-4.01;73.85;99871.53;1712731;83;20994;-56
2022/01/12 06:01:04;;;;;;;20.57;8.63;;;;;;;-4.08;73.78;99873.56;1711838;82;21588;-57
2022/01/12 06:03:31;;;;;;;25.12;10.20;;;;;;;-4.02;73.94;99879.10;1709580;82;21061;-57
2022/01/12 06:05:58;;;;;;;21.45;9.73;;;;;;;-4.01;73.76;99879.48;1674622;84;21025;-56
2022/01/12 06:08:25;;;;;;;24.55;11.88;;;;;;;-4.06;73.71;99884.84;1673523;85;21030;-57
2022/01/12 06:10:52;;;;;;;40.83;9.60;;;;;;;-4.10;73.64;99882.97;1666955;85;21070;-56
2022/01/12 06:13:19;;;;;;;24.65;11.38;;;;;;;-4.03;73.87;99884.05;1707683;82;21945;-57
2022/01/12 06:15:46;;;;;;;23.90;10.45;;;;;;;-3.95;74.04;99879.37;1706179;82;21983;-56
2022/01/12 06:18:12;;;;;;;33.05;12.25;;;;;;;-3.91;74.31;99878.13;1712767;82;21018;-57
2022/01/12 06:20:39;;;;;;;34.90;13.22;;;;;;;-3.82;74.26;99885.72;1711885;82;21002;-57
2022/01/12 06:23:06;;;;;;;29.67;10.32;;;;;;;-3.89;73.99;99888.09;1732869;82;21268;-56
2022/01/12 06:25:33;;;;;;;24.85;11.25;;;;;;;-3.93;74.35;99887.17;1735604;82;22088;-55
2022/01/12 06:28:21;;;;;;;25.40;10.58;;;;;;;-3.88;74.50;99896.38;1731760;82;21114;-56
2022/01/12 06:33:14;;;;;;;28.35;12.03;;;;;;;-3.88;74.52;99894.22;1712462;82;21064;-56
2022/01/12 06:35:41;;;;;;;31.25;13.25;;;;;;;-3.83;74.60;99894.64;1715082;82;21427;-56
2022/01/12 06:38:08;;;;;;;29.27;15.35;;;;;;;-3.77;74.64;99898.86;1735711;80;21437;-57
2022/01/12 06:40:35;;;;;;;30.15;14.20;;;;;;;-3.82;74.64;99904.27;1717606;82;21016;-56
2022/01/12 06:43:02;;;;;;;27.95;12.95;;;;;;;-3.93;74.61;99907.91;1737398;82;21068;-56
2022/01/12 06:45:29;;;;;;;31.48;12.80;;;;;;;-4.04;75.37;99908.87;1721698;80;20983;-57
2022/01/12 06:47:56;;;;;;;26.05;12.18;;;;;;;-3.89;75.01;99909.77;1721746;82;21036;-56
2022/01/12 06:50:23;;;;;;;28.30;11.55;;;;;;;-3.88;74.81;99905.66;1712999;82;22141;-57
2022/01/12 06:52:49;;;;;;;21.42;10.23;;;;;;;-3.76;75.00;99904.53;1735000;82;21040;-57
2022/01/12 06:55:16;;;;;;;27.17;11.50;;;;;;;-3.75;74.37;99912.83;1730674;82;21041;-57
2022/01/12 06:57:43;;;;;;;33.13;13.78;;;;;;;-3.74;74.52;99914.49;1711815;82;21261;-56
2022/01/12 07:00:10;;;;;;;36.03;13.30;;;;;;;-3.64;74.78;99914.47;1712502;82;21510;-56
2022/01/12 07:02:37;;;;;;;54.73;24.90;;;;;;;-3.59;74.52;99914.03;1728541;82;21444;-57
2022/01/12 07:05:06;;;;;;;37.48;15.78;;;;;;;-3.58;74.60;99916.56;1717183;82;21028;-57
2022/01/12 07:07:33;;;;;;;34.30;14.40;;;;;;;-3.57;74.31;99929.31;1715642;82;26537;-57
2022/01/12 07:10:00;;;;;;;54.58;19.27;;;;;;;-3.59;74.23;99932.58;1733161;82;20996;-56
2022/01/12 07:12:27;;;;;;;32.15;12.88;;;;;;;-3.56;74.36;99931.82;1662188;85;21088;-57
2022/01/12 07:14:54;;;;;;;24.75;10.05;;;;;;;-3.61;73.57;99938.52;1725223;82;21122;-57
2022/01/12 07:17:21;;;;;;;35.28;16.02;;;;;;;-3.73;73.54;99943.98;1682268;84;21283;-57
2022/01/12 07:19:48;;;;;;;49.98;18.55;;;;;;;-3.65;74.22;99937.98;1732944;82;21499;-56
2022/01/12 07:22:15;;;;;;;43.75;18.07;;;;;;;-3.51;74.54;99940.66;1725162;82;21076;-56
2022/01/12 07:24:42;;;;;;;48.15;16.90;;;;;;;-3.53;73.56;99943.45;1717540;82;21085;-56
2022/01/12 07:27:08;;;;;;;46.45;17.27;;;;;;;-3.43;74.33;99939.45;1715568;82;21395;-57
2022/01/12 07:29:35;;;;;;;43.05;17.87;;;;;;;-3.38;73.75;99942.52;1719862;82;21007;-57
2022/01/12 07:32:03;;;;;;;49.88;20.05;;;;;;;-3.32;74.08;99951.72;1715520;82;21161;-56
2022/01/12 07:34:30;;;;;;;45.25;18.30;;;;;;;-3.27;74.04;99954.27;1715146;82;21470;-57
2022/01/12 07:36:58;;;;;;;35.07;15.00;;;;;;;-3.46;73.06;99949.86;1654916;85;21528;-57
2022/01/12 07:39:25;;;;;;;27.58;12.80;;;;;;;-3.52;73.49;99949.09;1680780;84;21148;-56
2022/01/12 07:41:52;;;;;;;28.77;13.93;;;;;;;-3.53;73.50;99946.10;1677835;83;21126;-57
2022/01/12 07:44:21;;;;;;;33.48;13.98;;;;;;;-3.71;73.63;99949.14;1735289;80;21056;-56
2022/01/12 07:46:48;;;;;;;27.20;14.70;;;;;;;-3.89;73.95;99942.39;1715676;82;21346;-57
2022/01/12 07:49:15;;;;;;;32.48;15.15;;;;;;;-4.03;74.69;99938.34;1717534;80;21103;-56
2022/01/12 07:51:42;;;;;;;34.40;15.55;;;;;;;-4.06;74.20;99943.09;1718423;82;21044;-56
2022/01/12 07:54:08;;;;;;;33.10;14.38;;;;;;;-4.15;74.29;99941.28;1719153;82;21100;-57
2022/01/12 07:56:35;;;;;;;40.85;16.30;;;;;;;-4.09;74.30;99942.06;1720965;82;21052;-56
2022/01/12 07:59:02;;;;;;;65.03;23.22;;;;;;;-4.07;74.47;99941.43;1721421;82;21481;-57
2022/01/12 08:01:29;;;;;;;31.70;13.15;;;;;;;-4.02;74.42;99949.28;1719363;82;21060;-56
2022/01/12 08:03:56;;;;;;;29.37;12.58;;;;;;;-3.89;74.44;99953.48;1718375;82;22387;-57
2022/01/12 08:06:23;;;;;;;28.60;12.73;;;;;;;-3.78;74.38;99966.08;1717873;82;20984;-57
2022/01/12 08:08:50;;;;;;;44.30;17.80;;;;;;;-3.69;74.06;99969.70;1719054;82;21501;-55
2022/01/12 08:11:17;;;;;;;26.42;12.63;;;;;;;-3.64;74.24;99962.17;1723111;82;21098;-56
2022/01/12 08:13:45;;;;;;;31.70;13.78;;;;;;;-3.52;74.14;99957.05;1713813;82;21008;-56
2022/01/12 08:16:12;;;;;;;30.68;13.55;;;;;;;-3.50;73.96;99961.73;1720524;82;20994;-56
2022/01/12 08:18:39;;;;;;;31.70;14.05;;;;;;;-3.43;74.05;99958.00;1723713;82;21017;-57
2022/01/12 08:21:06;;;;;;;39.50;16.40;;;;;;;-3.35;74.13;99956.80;1716851;82;21084;-56
2022/01/12 08:23:34;;;;;;;30.40;13.75;;;;;;;-3.32;73.82;99966.30;1720001;82;21509;-57
2022/01/12 08:26:00;;;;;;;29.55;14.33;;;;;;;-3.32;73.58;99972.94;1717135;82;20965;-56
2022/01/12 08:28:27;;;;;;;31.57;14.50;;;;;;;-3.27;73.88;99967.52;1712558;82;21115;-55
2022/01/12 08:30:54;;;;;;;28.98;13.80;;;;;;;-3.18;73.97;99963.17;1711945;82;21075;-56
2022/01/12 08:33:21;;;;;;;40.20;14.95;;;;;;;-3.10;73.85;99969.09;1721270;82;21115;-57
2022/01/12 08:35:48;;;;;;;28.77;13.22;;;;;;;-3.06;73.80;99970.48;1721119;82;21469;-57
2022/01/12 08:38:15;;;;;;;32.65;14.18;;;;;;;-3.23;71.83;99961.46;1714466;82;21114;-56
2022/01/12 08:40:42;;;;;;;32.75;13.08;;;;;;;-3.27;72.66;99972.83;1714329;82;20992;-56
2022/01/12 08:43:09;;;;;;;29.40;13.50;;;;;;;-3.36;73.09;99976.34;1718591;82;21131;-57
2022/01/12 08:45:36;;;;;;;32.20;16.42;;;;;;;-3.46;72.91;99976.86;1721943;82;21009;-57
2022/01/12 08:48:03;;;;;;;37.25;16.02;;;;;;;-3.73;73.33;99980.25;1717199;82;21094;-57
2022/01/12 08:50:30;;;;;;;88.00;31.00;;;;;;;-3.82;73.53;99980.59;1718049;82;21071;-56
2022/01/12 08:52:57;;;;;;;62.03;26.60;;;;;;;-3.79;73.79;99979.47;1666522;85;22065;-56
2022/01/12 08:55:24;;;;;;;43.80;20.00;;;;;;;-3.74;73.77;99979.90;1710985;82;21547;-57
2022/01/12 08:57:51;;;;;;;44.03;18.45;;;;;;;-3.64;73.53;99986.52;1719467;82;21111;-56
2022/01/12 09:00:18;;;;;;;39.40;17.15;;;;;;;-3.83;73.36;99988.69;1717856;82;21028;-56
2022/01/12 09:02:45;;;;;;;43.75;18.95;;;;;;;-3.77;73.30;99986.30;1718593;82;21001;-56
2022/01/12 09:05:14;;;;;;;32.25;14.33;;;;;;;-3.84;73.04;99993.16;1718123;82;21541;-57
2022/01/12 09:07:41;;;;;;;26.70;11.85;;;;;;;-3.84;72.74;99985.70;1714055;82;21087;-57
2022/01/12 09:10:09;;;;;;;40.15;16.15;;;;;;;-3.90;73.05;99991.05;1718730;82;20997;-57
2022/01/12 09:12:36;;;;;;;37.13;17.65;;;;;;;-3.91;72.98;99984.58;1718977;82;21039;-57
2022/01/12 09:15:08;;;;;;;30.25;13.43;;;;;;;-3.84;73.06;99983.05;1719755;82;21013;-56
2022/01/12 09:17:35;;;;;;;30.50;13.98;;;;;;;-3.84;73.00;99977.26;1717853;82;22261;-57
2022/01/12 09:20:03;;;;;;;26.65;11.12;;;;;;;-3.92;73.13;99985.55;1718659;82;21024;-57
2022/01/12 09:22:30;;;;;;;36.13;16.00;;;;;;;-3.75;73.09;99980.88;1718097;82;21051;-56
2022/01/12 09:24:57;;;;;;;26.27;12.30;;;;;;;-3.63;73.13;99986.36;1717987;82;21122;-57
2022/01/12 09:27:24;;;;;;;32.08;14.13;;;;;;;-3.57;72.66;99977.02;1715186;82;21438;-57
2022/01/12 09:29:50;;;;;;;31.95;14.75;;;;;;;-3.55;72.19;99979.88;1722069;82;21067;-56
2022/01/12 09:32:17;;;;;;;61.75;21.75;;;;;;;-3.49;72.40;99970.03;1710085;82;21029;-56
2022/01/12 09:34:44;;;;;;;43.15;15.18;;;;;;;-3.41;72.46;99971.98;1713830;82;21055;-57
2022/01/12 09:37:11;;;;;;;35.95;15.13;;;;;;;-3.37;72.53;99971.19;1721057;82;21083;-57
2022/01/12 09:39:38;;;;;;;27.22;11.60;;;;;;;-3.30;72.63;99965.66;1666989;85;21156;-57
2022/01/12 09:42:06;;;;;;;28.98;11.93;;;;;;;-3.26;72.40;99964.38;1713626;82;20993;-57
2022/01/12 09:44:34;;;;;;;28.55;13.05;;;;;;;-3.23;72.50;99958.81;1712388;82;20997;-57
2022/01/12 09:47:02;;;;;;;;;;;;;;;-3.22;72.54;99958.66;1700472;82;21540;-57
2022/01/12 09:49:29;;;;;;;36.88;15.55;;;;;;;-3.08;72.99;99964.46;1718823;82;20261;-57
2022/01/12 09:51:57;;;;;;;60.98;23.35;;;;;;;-3.05;71.71;99962.87;1717104;82;21045;-58
2022/01/12 09:54:26;;;;;;;45.85;19.87;;;;;;;-3.02;71.87;99959.91;1719266;82;22255;-56
2022/01/12 09:56:52;;;;;;;40.55;17.02;;;;;;;-3.08;70.63;99958.66;1714746;82;21568;-57
2022/01/12 09:59:21;;;;;;;41.10;17.12;;;;;;;-3.08;70.74;99959.16;1720969;82;21067;-57
2022/01/12 10:01:48;;;;;;;32.93;15.57;;;;;;;-3.55;69.94;99952.53;1715548;82;21464;-57
2022/01/12 10:04:20;;;;;;;33.35;15.05;;;;;;;-3.55;69.94;99952.53;1719291;82;21382;-57
2022/01/12 10:06:50;;;;;;;27.42;14.68;;;;;;;-3.73;70.53;99951.09;1718567;82;20980;-57
2022/01/12 10:09:23;;;;;;;40.58;21.02;;;;;;;-3.67;70.70;99938.62;1718418;82;21033;-57
2022/01/12 10:11:57;;;;;;;51.45;23.65;;;;;;;-3.70;70.21;99928.28;1715227;82;21020;-57
2022/01/12 10:14:24;;;;;;;41.00;15.53;;;;;;;-3.66;70.61;99924.87;1711999;82;21155;-57
2022/01/12 10:16:56;;;;;;;31.27;13.35;;;;;;;-3.67;70.64;99916.55;1717196;82;21158;-57
2022/01/12 10:19:31;;;;;;;27.70;11.25;;;;;;;-3.79;70.02;99912.75;1718963;82;21095;-57
2022/01/12 10:22:00;;;;;;;24.40;12.03;;;;;;;-3.67;70.52;99913.44;1718597;82;21033;-57
2022/01/12 10:24:28;;;;;;;60.23;15.18;;;;;;;-3.61;70.54;99910.69;1717710;82;21447;-58
2022/01/12 10:26:55;;;;;;;54.00;19.98;;;;;;;-3.47;70.98;99911.57;1709664;82;21414;-57
2022/01/12 10:29:25;;;;;;;61.68;21.05;;;;;;;-3.30;71.16;99915.29;1718544;82;21052;-56
2022/01/12 10:31:58;;;;;;;70.50;24.92;;;;;;;-3.22;71.02;99902.97;1721969;82;21068;-57
2022/01/12 10:34:38;;;;;;;63.60;24.87;;;;;;;-3.32;71.13;99902.67;1717161;82;21070;-56
2022/01/12 10:37:08;;;;;;;79.35;30.12;;;;;;;-3.22;71.17;99906.95;1716268;82;21044;-56
2022/01/12 10:39:39;;;;;;;36.65;17.50;;;;;;;-3.18;70.89;99912.30;1718987;82;21579;-56
2022/01/12 10:42:11;;;;;;;110.55;37.67;;;;;;;-3.09;71.19;99924.34;1717238;82;21015;-57
2022/01/12 10:44:42;;;;;;;48.65;19.65;;;;;;;-3.03;70.64;99923.77;1714852;82;21857;-57
2022/01/12 10:47:20;;;;;;;39.88;16.55;;;;;;;-2.97;70.97;99922.69;1718077;82;21083;-57
2022/01/12 10:49:58;;;;;;;34.60;15.30;;;;;;;-2.93;70.35;99920.56;1716249;82;21018;-57
2022/01/12 10:52:29;;;;;;;36.00;14.75;;;;;;;-2.91;68.94;99920.75;1715467;82;21060;-57
2022/01/12 10:54:59;;;;;;;128.62;39.13;;;;;;;-2.95;69.19;99913.25;1721018;82;21139;-56
2022/01/12 10:57:29;;;;;;;38.63;16.48;;;;;;;-2.87;70.10;99918.66;1719377;82;21103;-57
2022/01/12 11:00:19;;;;;;;27.20;12.15;;;;;;;-2.96;68.96;99919.05;1718631;82;21108;-57
2022/01/12 11:02:51;;;;;;;26.95;12.60;;;;;;;-3.21;68.80;99922.38;1717391;82;21083;-57
2022/01/12 11:05:20;;;;;;;27.98;13.60;;;;;;;-3.22;69.69;99918.88;1723084;82;21083;-57
2022/01/12 11:07:48;;;;;;;59.83;28.30;;;;;;;-3.17;69.75;99904.67;1716586;82;21139;-57
2022/01/12 11:10:15;;;;;;;41.25;21.37;;;;;;;-3.23;69.34;99909.27;1714456;82;21033;-56
2022/01/12 11:12:42;;;;;;;50.95;29.60;;;;;;;-3.17;69.52;99902.52;1721538;82;20978;-57
2022/01/12 11:15:12;;;;;;;37.38;20.32;;;;;;;-3.14;69.48;99908.39;1667455;85;21061;-56
2022/01/12 11:17:40;;;;;;;59.48;18.02;;;;;;;-3.04;70.21;99909.66;1715475;82;21049;-57
2022/01/12 11:20:27;;;;;;;58.33;19.52;;;;;;;-3.00;70.06;99903.07;1715934;82;21045;-57
2022/01/12 11:23:13;;;;;;;40.52;18.02;;;;;;;-2.93;69.90;99905.98;1717756;82;21734;-57
2022/01/12 11:25:46;;;;;;;84.95;37.15;;;;;;;-2.90;69.94;99905.70;1719061;82;21051;-56
2022/01/12 11:28:20;;;;;;;76.50;28.85;;;;;;;-3.07;69.87;99913.95;1714365;82;21092;-55
2022/01/12 11:30:58;;;;;;;41.73;19.80;;;;;;;-3.10;69.98;99917.36;1719048;82;20958;-57
2022/01/12 11:33:40;;;;;;;36.17;17.52;;;;;;;-3.09;70.47;99924.34;1719008;82;20980;-57
2022/01/12 11:36:24;;;;;;;91.75;31.50;;;;;;;-3.16;70.34;99909.52;1715710;82;21182;-57
2022/01/12 11:39:05;;;;;;;176.37;56.35;;;;;;;-3.05;70.64;99897.88;1717831;82;20989;-57
2022/01/12 11:41:34;;;;;;;193.68;72.62;;;;;;;-2.91;70.68;99902.18;1716628;82;21024;-56
2022/01/12 11:44:13;;;;;;;54.75;21.80;;;;;;;-2.97;70.03;99896.16;1722867;82;21074;-57
2022/01/12 11:46:51;;;;;;;79.58;31.62;;;;;;;-3.02;70.42;99905.04;1715775;82;21139;-57
2022/01/12 11:49:40;;;;;;;120.42;43.00;;;;;;;-2.93;70.52;99908.63;1719161;82;21157;-56
2022/01/12 11:52:25;;;;;;;100.50;33.42;;;;;;;-2.92;70.52;99911.63;1719807;82;21052;-57
2022/01/12 11:55:14;;;;;;;134.93;44.23;;;;;;;-2.87;70.66;99896.11;1722818;82;21045;-56
2022/01/12 11:57:44;;;;;;;52.50;20.43;;;;;;;-2.96;69.62;99895.17;1714953;82;21096;-57
2022/01/12 12:00:19;;;;;;;37.65;16.77;;;;;;;-3.14;69.86;99896.45;1713921;82;21648;-55
2022/01/12 12:02:49;;;;;;;35.68;14.35;;;;;;;-3.16;69.93;99900.23;1715825;82;21571;-57
2022/01/12 12:05:22;;;;;;;29.07;14.25;;;;;;;-3.23;70.26;99906.61;1714974;82;21051;-56
2022/01/12 12:07:53;;;;;;;58.40;24.15;;;;;;;-3.32;69.92;99890.74;1718838;82;21853;-56
2022/01/12 12:10:23;;;;;;;38.13;18.48;;;;;;;-3.22;70.33;99887.55;1719446;82;21068;-56
2022/01/12 12:12:51;;;;;;;43.02;19.77;;;;;;;-3.15;70.11;99880.20;1717940;82;21091;-56
2022/01/12 12:15:19;;;;;;;35.68;16.25;;;;;;;-3.23;70.08;99876.61;1718204;82;21107;-56
2022/01/12 12:17:46;;;;;;;32.17;16.95;;;;;;;-3.21;70.41;99874.14;1719153;82;21079;-56
2022/01/12 12:20:16;;;;;;;39.27;16.42;;;;;;;-3.30;70.12;99874.19;1718500;82;21044;-55
2022/01/12 12:22:45;;;;;;;29.80;15.48;;;;;;;-3.25;70.35;99873.24;1718108;82;21622;-56
2022/01/12 12:25:14;;;;;;;;;;;;;;;-3.42;70.24;99873.52;1716160;82;21036;-56
2022/01/12 12:27:44;;;;;;;37.33;17.15;;;;;;;-3.50;70.67;99886.20;1712652;82;21374;-56
2022/01/12 12:30:13;;;;;;;98.62;41.33;;;;;;;-3.47;70.63;99900.48;1717106;82;20980;-56
2022/01/12 12:32:45;;;;;;;58.50;23.38;;;;;;;-3.55;70.45;99904.34;1715267;82;21170;-56
2022/01/12 12:35:15;;;;;;;64.65;29.72;;;;;;;-3.51;70.46;99914.15;1708038;82;21590;-56
2022/01/12 12:37:48;;;;;;;79.87;36.60;;;;;;;-3.48;71.03;99916.04;1722247;82;21210;-56
2022/01/12 12:40:39;;;;;;;57.90;23.77;;;;;;;-3.62;70.74;99914.33;1720109;82;21288;-56
2022/01/12 12:43:26;;;;;;;50.55;21.52;;;;;;;-3.49;70.79;99906.91;1719725;82;21051;-56
2022/01/12 12:45:59;;;;;;;105.07;34.60;;;;;;;-3.51;70.89;99910.17;1717151;82;21020;-57
2022/01/12 12:48:28;;;;;;;44.30;18.40;;;;;;;-3.51;70.59;99908.84;1720464;80;21138;-57
2022/01/12 12:51:13;;;;;;;115.37;42.38;;;;;;;-3.57;70.89;99901.00;1715284;82;21166;-56
2022/01/12 12:53:47;;;;;;;216.25;70.92;;;;;;;-3.56;70.79;99909.78;1716051;82;21157;-55
2022/01/12 12:56:18;;;;;;;401.65;123.07;;;;;;;-3.66;71.02;99913.78;1716505;82;21398;-56
2022/01/12 12:58:50;;;;;;;98.82;33.63;;;;;;;-3.67;71.31;99908.61;1715619;82;21504;-56
2022/01/12 13:01:20;;;;;;;90.40;35.45;;;;;;;-3.90;71.55;99912.08;1717217;82;21103;-55
2022/01/12 13:03:52;;;;;;;137.50;48.78;;;;;;;-3.93;71.83;99909.69;1718120;82;21009;-55